createdAt,value
2023-05-16T00:00:54.467Z,99768.25
2023-05-16T00:03:22.278Z,99785.34
2023-05-16T00:05:50.632Z,99794.31
2023-05-16T00:08:18.043Z,99792.66
2023-05-16T00:10:46.789Z,99799.03
2023-05-16T00:13:14.486Z,99803.25
2023-05-16T00:15:43.902Z,99800.50
2023-05-16T00:18:14.776Z,99791.66
2023-05-16T00:20:42.300Z,99808.72
2023-05-16T00:23:09.737Z,99793.94
2023-05-16T00:25:37.453Z,99804.03
2023-05-16T00:28:06.336Z,99794.88
2023-05-16T00:30:34.061Z,99802.84
2023-05-16T00:33:02.017Z,99803.44
2023-05-16T00:35:29.543Z,99807.34
2023-05-16T00:37:57.018Z,99794.78
2023-05-16T00:40:24.521Z,99806.56
2023-05-16T00:42:51.981Z,99803.53
2023-05-16T00:45:20.725Z,99813.16
2023-05-16T00:47:48.622Z,99810.94
2023-05-16T00:50:16.151Z,99815.28
2023-05-16T00:52:43.685Z,99817.72
2023-05-16T00:55:11.781Z,99823.56
2023-05-16T00:57:39.352Z,99820.78
2023-05-16T01:00:09.408Z,99820.16
2023-05-16T01:02:39.139Z,99813.38
2023-05-16T01:05:07.558Z,99820.06
2023-05-16T01:07:35.346Z,99818.88
2023-05-16T01:10:03.976Z,99814.47
2023-05-16T01:12:39.450Z,99818.31
2023-05-16T01:15:10.692Z,99823.09
2023-05-16T01:17:50.711Z,99817.19
2023-05-16T01:20:30.042Z,99832.34
2023-05-16T01:23:06.699Z,99828.25
2023-05-16T01:25:58.032Z,99835.22
2023-05-16T01:28:28.049Z,99836.66
2023-05-16T01:30:55.511Z,99838.19
2023-05-16T01:33:22.881Z,99844.25
2023-05-16T01:35:56.739Z,99842.84
2023-05-16T01:38:27.501Z,99844.56
2023-05-16T01:40:59.202Z,99845.75
2023-05-16T01:43:36.427Z,99847.28
2023-05-16T01:46:12.963Z,99841.50
2023-05-16T01:48:45.795Z,99847.91
2023-05-16T01:51:14.082Z,99844.78
2023-05-16T01:53:42.381Z,99850.63
2023-05-16T01:56:16.613Z,99845.03
2023-05-16T01:58:47.095Z,99852.69
2023-05-16T02:01:14.542Z,99851.16
2023-05-16T02:03:42.011Z,99851.91
2023-05-16T02:06:09.467Z,99863.44
2023-05-16T02:08:36.881Z,99872.72
2023-05-16T02:11:04.270Z,99872.56
2023-05-16T02:13:31.792Z,99862.63
2023-05-16T02:16:00.565Z,99874.13
2023-05-16T02:18:28.273Z,99863.44
2023-05-16T02:20:55.649Z,99866.41
2023-05-16T02:23:23.543Z,99866.50
2023-05-16T02:25:50.936Z,99867.75
2023-05-16T02:28:18.333Z,99860.09
2023-05-16T02:30:45.786Z,99868.59
2023-05-16T02:33:14.475Z,99869.94
2023-05-16T02:35:41.853Z,99875.63
2023-05-16T02:38:09.573Z,99873.91
2023-05-16T02:40:36.943Z,99880.03
2023-05-16T02:43:04.335Z,99886.06
2023-05-16T02:45:32.196Z,99888.00
2023-05-16T02:47:59.620Z,99887.97
2023-05-16T02:50:28.460Z,99893.38
2023-05-16T02:52:55.938Z,99902.50
2023-05-16T02:55:23.287Z,99905.38
2023-05-16T02:57:50.985Z,99900.59
2023-05-16T03:00:19.640Z,99903.19
2023-05-16T03:02:47.134Z,99913.78
2023-05-16T03:05:14.604Z,99916.03
2023-05-16T03:07:43.401Z,99915.84
2023-05-16T03:10:11.227Z,99918.41
2023-05-16T03:12:38.607Z,99927.94
2023-05-16T03:15:09.180Z,99931.56
2023-05-16T03:17:36.667Z,99931.84
2023-05-16T03:20:05.117Z,99933.38
2023-05-16T03:22:32.476Z,99934.91
2023-05-16T03:25:01.193Z,99930.91
2023-05-16T03:27:28.683Z,99945.09
2023-05-16T03:29:56.079Z,99944.00
2023-05-16T03:32:23.484Z,99942.69
2023-05-16T03:34:50.844Z,99951.97
2023-05-16T03:37:18.344Z,99937.84
2023-05-16T03:39:45.739Z,99955.00
2023-05-16T03:42:14.461Z,99953.19
2023-05-16T03:44:41.861Z,99952.56
2023-05-16T03:47:09.378Z,99960.94
2023-05-16T03:49:37.081Z,99960.09
2023-05-16T03:52:04.864Z,99967.53
2023-05-16T03:54:32.349Z,99970.34
2023-05-16T03:56:59.725Z,99960.19
2023-05-16T03:59:28.440Z,99966.56
2023-05-16T04:01:55.861Z,99962.56
2023-05-16T04:04:23.330Z,99970.53
2023-05-16T04:06:50.980Z,99974.63
2023-05-16T04:09:18.665Z,99982.06
2023-05-16T04:11:46.334Z,99985.53
2023-05-16T04:14:13.815Z,99990.13
2023-05-16T04:16:42.739Z,99992.53
2023-05-16T04:19:10.619Z,100002.88
2023-05-16T04:21:38.450Z,100009.50
2023-05-16T04:24:06.794Z,100007.84
2023-05-16T04:26:34.259Z,100012.47
2023-05-16T04:29:01.670Z,100015.91
2023-05-16T04:31:29.177Z,100022.41
2023-05-16T04:33:58.019Z,100027.47
2023-05-16T04:36:25.464Z,100033.06
2023-05-16T04:38:52.852Z,100035.50
2023-05-16T04:41:20.270Z,100032.38
2023-05-16T04:43:47.635Z,100044.66
2023-05-16T04:46:15.595Z,100041.06
2023-05-16T04:48:43.034Z,100046.66
2023-05-16T04:51:12.121Z,100036.16
2023-05-16T04:53:39.502Z,100037.16
2023-05-16T04:56:07.363Z,100035.72
2023-05-16T04:58:34.763Z,100035.34
2023-05-16T05:01:02.136Z,100045.66
2023-05-16T05:03:29.517Z,100045.03
2023-05-16T05:05:56.942Z,100048.09
2023-05-16T05:08:26.060Z,100059.66
2023-05-16T05:10:53.418Z,100062.59
2023-05-16T05:13:20.838Z,100070.47
2023-05-16T05:15:50.268Z,100072.00
2023-05-16T05:18:17.771Z,100071.94
2023-05-16T05:20:45.940Z,100068.41
2023-05-16T05:23:13.309Z,100071.03
2023-05-16T05:25:42.019Z,100072.44
2023-05-16T05:28:09.396Z,100082.59
2023-05-16T05:30:36.901Z,100091.91
2023-05-16T05:33:04.389Z,100087.34
2023-05-16T05:35:31.763Z,100085.38
2023-05-16T05:37:59.147Z,100091.53
2023-05-16T05:40:26.677Z,100102.66
2023-05-16T05:42:55.441Z,100097.72
2023-05-16T05:45:22.796Z,100097.38
2023-05-16T05:47:50.305Z,100098.28
2023-05-16T05:50:18.211Z,100108.25
2023-05-16T05:52:45.732Z,100112.47
2023-05-16T05:55:13.120Z,100108.25
2023-05-16T05:57:40.491Z,100117.53
2023-05-16T06:00:11.495Z,100116.75
2023-05-16T06:02:39.039Z,100118.31
2023-05-16T06:05:07.609Z,100125.34
2023-05-16T06:07:35.066Z,100132.41
2023-05-16T06:10:05.036Z,100133.38
2023-05-16T06:12:33.150Z,100135.84
2023-05-16T06:15:00.586Z,100141.88
2023-05-16T06:17:29.311Z,100136.41
2023-05-16T06:19:56.709Z,100143.16
2023-05-16T06:22:24.120Z,100149.06
2023-05-16T06:24:51.554Z,100147.47
2023-05-16T06:27:18.902Z,100154.34
2023-05-16T06:29:46.312Z,100149.81
2023-05-16T06:32:13.713Z,100149.16
2023-05-16T06:34:42.488Z,100149.16
2023-05-16T06:37:09.874Z,100158.00
2023-05-16T06:39:37.268Z,100153.78
2023-05-16T06:42:05.207Z,100154.13
2023-05-16T06:44:32.649Z,100160.78
2023-05-16T06:47:00.207Z,100156.44
2023-05-16T06:49:27.731Z,100173.38
2023-05-16T06:51:56.504Z,100171.31
2023-05-16T06:54:23.958Z,100167.16
2023-05-16T06:56:51.401Z,100168.59
2023-05-16T06:59:18.850Z,100168.66
2023-05-16T07:01:46.566Z,100168.25
2023-05-16T07:04:14.426Z,100167.53
2023-05-16T07:06:41.958Z,100158.47
2023-05-16T07:09:10.731Z,100161.97
2023-05-16T07:11:38.245Z,100169.53
2023-05-16T07:14:05.660Z,100167.16
2023-05-16T07:16:33.309Z,100177.09
2023-05-16T07:19:01.003Z,100181.88
2023-05-16T07:21:29.245Z,100182.88
2023-05-16T07:23:56.822Z,100195.56
2023-05-16T07:26:25.592Z,100191.16
2023-05-16T07:28:53.697Z,100175.72
2023-05-16T07:31:21.383Z,100173.72
2023-05-16T07:33:49.242Z,100178.59
2023-05-16T07:36:17.770Z,100176.75
2023-05-16T07:38:46.020Z,100182.00
2023-05-16T07:41:13.523Z,100180.00
2023-05-16T07:43:42.310Z,100194.28
2023-05-16T07:46:09.831Z,100190.66
2023-05-16T07:48:37.683Z,100192.31
2023-05-16T07:51:05.175Z,100193.38
2023-05-16T07:53:32.607Z,100188.97
2023-05-16T07:56:00.336Z,100202.13
2023-05-16T07:58:27.945Z,100196.75
2023-05-16T08:00:56.860Z,100209.91
2023-05-16T08:03:24.406Z,100224.47
2023-05-16T08:05:52.153Z,100204.22
2023-05-16T08:08:19.605Z,100217.13
2023-05-16T08:10:47.261Z,100226.19
2023-05-16T08:13:14.727Z,100228.41
2023-05-16T08:15:42.607Z,100234.34
2023-05-16T08:18:16.356Z,100234.84
2023-05-16T08:20:44.288Z,100248.09
2023-05-16T08:23:11.729Z,100239.34
2023-05-16T08:25:39.388Z,100249.56
2023-05-16T08:28:06.954Z,100243.56
2023-05-16T08:30:34.847Z,100252.88
2023-05-16T08:33:04.949Z,100264.84
2023-05-16T08:35:35.315Z,100264.50
2023-05-16T08:38:03.094Z,100265.59
2023-05-16T08:40:31.406Z,100263.38
2023-05-16T08:42:59.031Z,100263.94
2023-05-16T08:45:27.139Z,100270.31
2023-05-16T08:47:56.764Z,100260.31
2023-05-16T08:50:25.296Z,100274.19
2023-05-16T08:52:54.391Z,100284.38
2023-05-16T08:55:22.756Z,100288.38
2023-05-16T08:57:51.854Z,100286.13
2023-05-16T09:00:20.063Z,100289.09
2023-05-16T09:02:48.347Z,100283.69
2023-05-16T09:05:17.116Z,100286.31
2023-05-16T09:07:46.115Z,100274.78
2023-05-16T09:10:15.056Z,100280.03
2023-05-16T09:12:43.637Z,100285.25
2023-05-16T09:15:12.212Z,100280.34
2023-05-16T09:17:44.159Z,100268.59
2023-05-16T09:20:13.646Z,100277.22
2023-05-16T09:22:41.849Z,100282.13
2023-05-16T09:25:18.419Z,100297.50
2023-05-16T09:27:53.907Z,100287.72
2023-05-16T09:30:23.969Z,100298.88
2023-05-16T09:32:53.313Z,100305.66
2023-05-16T09:35:34.993Z,100313.81
2023-05-16T09:38:15.763Z,100313.44
2023-05-16T09:40:43.965Z,100320.28
2023-05-16T09:43:16.186Z,100323.66
2023-05-16T09:45:47.635Z,100319.66
2023-05-16T09:48:16.934Z,100319.84
2023-05-16T09:50:49.867Z,100318.34
2023-05-16T09:53:17.456Z,100329.44
2023-05-16T09:55:44.891Z,100326.75
2023-05-16T09:58:18.269Z,100330.81
2023-05-16T10:00:47.028Z,100328.38
2023-05-16T10:03:16.295Z,100342.59
2023-05-16T10:05:44.042Z,100352.91
2023-05-16T10:08:12.321Z,100346.06
2023-05-16T10:10:40.739Z,100339.78
2023-05-16T10:13:11.543Z,100345.25
2023-05-16T10:15:40.834Z,100330.91
2023-05-16T10:18:11.906Z,100333.84
2023-05-16T10:20:42.434Z,100333.56
2023-05-16T10:23:11.321Z,100334.19
2023-05-16T10:25:42.481Z,100339.94
2023-05-16T10:28:10.291Z,100337.81
2023-05-16T10:30:41.762Z,100335.75
2023-05-16T10:33:10.343Z,100329.53
2023-05-16T10:35:38.132Z,100331.03
2023-05-16T10:38:09.518Z,100321.50
2023-05-16T10:40:38.792Z,100325.44
2023-05-16T10:43:08.213Z,100326.25
2023-05-16T10:45:36.275Z,100317.88
2023-05-16T10:48:09.718Z,100316.81
2023-05-16T10:50:39.482Z,100315.81
2023-05-16T10:53:19.673Z,100321.50
2023-05-16T10:55:51.886Z,100315.94
2023-05-16T10:58:26.193Z,100323.19
2023-05-16T11:01:15.890Z,100324.31
2023-05-16T11:06:45.505Z,100317.13
2023-05-16T11:09:26.492Z,100324.72
2023-05-16T11:11:59.789Z,100323.81
2023-05-16T11:14:29.799Z,100327.75
2023-05-16T11:17:03.432Z,100336.53
2023-05-16T11:19:36.378Z,100339.44
2023-05-16T11:22:09.455Z,100328.91
2023-05-16T11:24:38.141Z,100328.69
2023-05-16T11:27:06.828Z,100323.94
2023-05-16T11:29:35.742Z,100317.00
2023-05-16T11:32:04.843Z,100312.28
2023-05-16T11:34:33.308Z,100310.34
2023-05-16T11:37:02.110Z,100311.28
2023-05-16T11:39:33.580Z,100311.19
2023-05-16T11:42:01.163Z,100307.41
2023-05-16T11:44:28.603Z,100301.91
2023-05-16T11:46:56.526Z,100312.81
2023-05-16T11:49:24.245Z,100308.84
2023-05-16T11:51:52.749Z,100304.91
2023-05-16T11:54:20.762Z,100302.25
2023-05-16T11:56:51.338Z,100301.00
2023-05-16T11:59:19.444Z,100295.03
2023-05-16T12:01:49.056Z,100288.41
2023-05-16T12:04:18.031Z,100290.31
2023-05-16T12:06:46.028Z,100301.47
2023-05-16T12:09:16.129Z,100298.44
2023-05-16T12:11:45.546Z,100289.66
2023-05-16T12:14:15.105Z,100295.84
2023-05-16T12:16:43.923Z,100290.66
2023-05-16T12:19:12.300Z,100291.31
2023-05-16T12:21:40.075Z,100293.78
2023-05-16T12:24:11.106Z,100292.50
2023-05-16T12:26:42.759Z,100302.16
2023-05-16T12:29:11.576Z,100315.38
2023-05-16T12:31:41.746Z,100300.94
2023-05-16T12:34:21.285Z,100305.47
2023-05-16T12:36:52.768Z,100305.69
2023-05-16T12:39:21.087Z,100305.16
2023-05-16T12:41:48.464Z,100309.03
2023-05-16T12:44:17.841Z,100309.31
2023-05-16T12:46:49.567Z,100307.06
2023-05-16T12:49:17.177Z,100316.97
2023-05-16T12:51:50.227Z,100311.41
2023-05-16T12:54:18.228Z,100301.94
2023-05-16T12:56:46.113Z,100312.34
2023-05-16T12:59:13.781Z,100319.88
2023-05-16T13:01:42.019Z,100335.78
2023-05-16T13:04:15.371Z,100331.06
2023-05-16T13:06:57.313Z,100335.91
2023-05-16T13:09:28.917Z,100343.28
2023-05-16T13:11:59.623Z,100335.47
2023-05-16T13:14:27.157Z,100350.44
2023-05-16T13:16:54.603Z,100347.22
2023-05-16T13:19:24.154Z,100348.34
2023-05-16T13:21:51.724Z,100340.56
2023-05-16T13:24:19.158Z,100353.13
2023-05-16T13:26:46.573Z,100353.38
2023-05-16T13:29:14.768Z,100363.28
2023-05-16T13:31:42.434Z,100351.25
2023-05-16T13:34:09.915Z,100360.81
2023-05-16T13:36:52.939Z,100348.63
2023-05-16T13:39:21.912Z,100351.25
2023-05-16T13:41:49.597Z,100353.34
2023-05-16T13:44:17.221Z,100354.47
2023-05-16T13:46:44.870Z,100346.97
2023-05-16T13:49:12.347Z,100347.56
2023-05-16T13:51:41.264Z,100336.25
2023-05-16T13:54:08.820Z,100348.25
2023-05-16T13:56:36.274Z,100345.06
2023-05-16T13:59:06.895Z,100350.94
2023-05-16T14:01:35.191Z,100344.34
2023-05-16T14:04:02.804Z,100344.94
2023-05-16T14:06:31.155Z,100339.03
2023-05-16T14:08:59.941Z,100336.44
2023-05-16T14:11:29.079Z,100334.78
2023-05-16T14:13:57.545Z,100323.97
2023-05-16T14:16:25.862Z,100337.47
2023-05-16T14:18:53.400Z,100337.88
2023-05-16T14:21:20.846Z,100335.78
2023-05-16T14:23:48.655Z,100332.88
2023-05-16T14:26:19.090Z,100335.28
2023-05-16T14:28:46.556Z,100337.94
2023-05-16T14:31:14.001Z,100337.94
2023-05-16T14:33:43.106Z,100350.19
2023-05-16T14:36:11.021Z,100353.78
2023-05-16T14:38:38.466Z,100345.91
2023-05-16T14:41:05.976Z,100335.16
2023-05-16T14:43:34.731Z,100333.91
2023-05-16T14:46:02.530Z,100340.56
2023-05-16T14:48:30.014Z,100353.69
2023-05-16T14:50:57.686Z,100358.63
2023-05-16T14:53:25.131Z,100365.28
2023-05-16T14:55:52.636Z,100364.44
2023-05-16T14:58:20.066Z,100369.06
2023-05-16T15:00:48.819Z,100374.75
2023-05-16T15:03:17.768Z,100375.75
2023-05-16T15:05:45.818Z,100390.88
2023-05-16T15:08:13.354Z,100384.09
2023-05-16T15:10:40.823Z,100393.69
2023-05-16T15:13:08.362Z,100397.28
2023-05-16T15:15:38.538Z,100400.53
2023-05-16T15:18:07.408Z,100390.56
2023-05-16T15:20:34.855Z,100391.22
2023-05-16T15:23:02.339Z,100375.84
2023-05-16T15:25:30.270Z,100383.72
2023-05-16T15:28:01.079Z,100378.28
2023-05-16T15:30:28.528Z,100382.91
2023-05-16T15:32:56.284Z,100381.28
2023-05-16T15:35:25.100Z,100378.50
2023-05-16T15:37:52.948Z,100378.31
2023-05-16T15:40:24.567Z,100396.53
2023-05-16T15:42:54.348Z,100384.41
2023-05-16T15:45:22.067Z,100378.38
2023-05-16T15:47:53.095Z,100381.47
2023-05-16T15:50:20.739Z,100384.19
2023-05-16T15:52:49.509Z,100386.47
2023-05-16T15:55:17.131Z,100383.06
2023-05-16T15:57:44.698Z,100380.38
2023-05-16T16:00:13.297Z,100385.44
2023-05-16T16:02:42.338Z,100373.88
2023-05-16T16:05:10.211Z,100368.25
2023-05-16T16:07:37.697Z,100366.81
2023-05-16T16:10:07.830Z,100358.16
2023-05-16T16:12:36.968Z,100367.81
2023-05-16T16:15:06.477Z,100363.72
2023-05-16T16:17:34.161Z,100358.38
2023-05-16T16:20:01.685Z,100358.34
2023-05-16T16:22:29.208Z,100352.81
2023-05-16T16:24:56.640Z,100360.72
2023-05-16T16:27:25.451Z,100354.06
2023-05-16T16:29:52.911Z,100358.63
2023-05-16T16:32:20.356Z,100365.13
2023-05-16T16:34:48.296Z,100358.44
2023-05-16T16:37:15.787Z,100358.09
2023-05-16T16:39:43.248Z,100365.78
2023-05-16T16:42:10.786Z,100367.84
2023-05-16T16:44:39.549Z,100372.16
2023-05-16T16:47:07.295Z,100380.38
2023-05-16T16:49:34.792Z,100374.91
2023-05-16T16:52:02.693Z,100376.69
2023-05-16T16:54:30.173Z,100386.44
2023-05-16T16:56:57.627Z,100380.75
2023-05-16T16:59:25.068Z,100383.56
2023-05-16T17:01:53.918Z,100386.34
2023-05-16T17:04:21.390Z,100380.81
2023-05-16T17:06:48.978Z,100400.84
2023-05-16T17:09:19.503Z,100385.78
2023-05-16T17:11:47.459Z,100395.91
2023-05-16T17:14:15.128Z,100391.06
2023-05-16T17:16:42.867Z,100399.97
2023-05-16T17:19:11.904Z,100404.41
2023-05-16T17:21:40.512Z,100403.66
2023-05-16T17:24:08.631Z,100401.94
2023-05-16T17:26:36.592Z,100408.91
2023-05-16T17:29:05.135Z,100398.28
2023-05-16T17:31:32.689Z,100398.13
2023-05-16T17:34:04.050Z,100390.94
2023-05-16T17:36:59.124Z,100391.38
2023-05-16T17:39:26.636Z,100393.06
2023-05-16T17:41:55.251Z,100395.28
2023-05-16T17:44:22.669Z,100396.09
2023-05-16T17:46:50.284Z,100392.88
2023-05-16T17:49:17.759Z,100390.78
2023-05-16T17:51:51.119Z,100398.63
2023-05-16T17:54:20.213Z,100395.00
2023-05-16T17:56:48.623Z,100404.13
2023-05-16T17:59:16.759Z,100406.53
2023-05-16T18:01:44.693Z,100404.66
2023-05-16T18:04:13.129Z,100405.84
2023-05-16T18:06:50.987Z,100404.47
2023-05-16T18:09:20.658Z,100408.66
2023-05-16T18:11:48.205Z,100401.00
2023-05-16T18:14:15.690Z,100401.75
2023-05-16T18:16:43.777Z,100404.03
2023-05-16T18:19:11.737Z,100403.28
2023-05-16T18:21:40.030Z,100404.03
2023-05-16T18:24:10.734Z,100405.84
2023-05-16T18:26:40.108Z,100409.91
2023-05-16T18:29:07.881Z,100411.09
2023-05-16T18:31:35.485Z,100405.47
2023-05-16T18:34:03.589Z,100424.22
2023-05-16T18:36:32.193Z,100421.69
2023-05-16T18:38:59.796Z,100411.56
2023-05-16T18:41:27.381Z,100421.94
2023-05-16T18:43:56.417Z,100423.28
2023-05-16T18:47:32.699Z,100427.34
2023-05-16T18:50:00.204Z,100424.88
2023-05-16T18:52:27.641Z,100430.41
2023-05-16T18:54:55.077Z,100433.19
2023-05-16T18:57:22.610Z,100426.00
2023-05-16T18:59:53.980Z,100433.84
2023-05-16T19:02:30.208Z,100441.56
2023-05-16T19:04:58.960Z,100442.91
2023-05-16T19:07:28.661Z,100449.69
2023-05-16T19:09:56.108Z,100460.88
2023-05-16T19:12:23.567Z,100456.69
2023-05-16T19:14:52.344Z,100464.88
2023-05-16T19:17:19.784Z,100461.47
2023-05-16T19:19:47.341Z,100455.94
2023-05-16T19:22:14.774Z,100460.75
2023-05-16T19:24:42.343Z,100463.00
2023-05-16T19:27:09.806Z,100465.94
2023-05-16T19:29:39.832Z,100471.22
2023-05-16T19:32:13.025Z,100470.75
2023-05-16T19:34:40.668Z,100466.22
2023-05-16T19:37:08.799Z,100465.72
2023-05-16T19:39:36.265Z,100461.53
2023-05-16T19:42:07.482Z,100475.25
2023-05-16T19:44:35.407Z,100472.78
2023-05-16T19:47:02.836Z,100471.69
2023-05-16T19:49:32.573Z,100480.28
2023-05-16T19:52:00.041Z,100480.88
2023-05-16T19:54:31.000Z,100480.28
2023-05-16T19:56:58.426Z,100495.88
2023-05-16T19:59:25.914Z,100491.19
2023-05-16T20:01:53.702Z,100498.16
2023-05-16T20:04:21.266Z,100506.44
2023-05-16T20:06:50.141Z,100504.16
2023-05-16T20:09:17.573Z,100502.31
2023-05-16T20:11:44.997Z,100492.28
2023-05-16T20:14:12.412Z,100497.25
2023-05-16T20:16:39.843Z,100496.69
2023-05-16T20:19:07.688Z,100503.56
2023-05-16T20:21:39.002Z,100502.63
2023-05-16T20:24:08.095Z,100498.00
2023-05-16T20:26:35.557Z,100497.25
2023-05-16T20:29:03.652Z,100500.66
2023-05-16T20:31:31.192Z,100498.53
2023-05-16T20:33:58.630Z,100505.63
2023-05-16T20:36:26.153Z,100504.13
2023-05-16T20:38:53.618Z,100517.09
2023-05-16T20:41:22.361Z,100521.44
2023-05-16T20:43:50.547Z,100514.34
2023-05-16T20:46:18.137Z,100521.13
2023-05-16T20:48:49.031Z,100523.66
2023-05-16T20:51:16.944Z,100529.13
2023-05-16T20:53:44.374Z,100524.50
2023-05-16T20:56:11.774Z,100521.72
2023-05-16T20:58:42.212Z,100526.28
2023-05-16T21:01:09.866Z,100525.25
2023-05-16T21:03:37.370Z,100533.88
2023-05-16T21:06:05.241Z,100535.81
2023-05-16T21:08:32.750Z,100534.19
2023-05-16T21:11:00.363Z,100535.00
2023-05-16T21:13:28.770Z,100533.38
2023-05-16T21:15:57.538Z,100529.63
2023-05-16T21:18:25.093Z,100541.59
2023-05-16T21:20:52.551Z,100540.09
2023-05-16T21:23:19.973Z,100539.44
2023-05-16T21:25:47.383Z,100536.38
2023-05-16T21:28:14.799Z,100545.41
2023-05-16T21:30:42.251Z,100549.19
2023-05-16T21:33:11.504Z,100551.81
2023-05-16T21:35:38.958Z,100548.22
2023-05-16T21:38:06.440Z,100553.94
2023-05-16T21:40:33.855Z,100560.06
2023-05-16T21:43:01.255Z,100555.31
2023-05-16T21:45:29.323Z,100554.66
2023-05-16T21:47:57.030Z,100557.13
2023-05-16T21:50:25.894Z,100565.00
2023-05-16T21:52:53.334Z,100564.03
2023-05-16T21:55:20.778Z,100560.88
2023-05-16T21:57:48.261Z,100569.91
2023-05-16T22:00:16.863Z,100583.53
2023-05-16T22:02:44.613Z,100576.78
2023-05-16T22:05:12.285Z,100569.72
2023-05-16T22:07:41.401Z,100580.06
2023-05-16T22:10:10.688Z,100588.59
2023-05-16T22:12:38.456Z,100587.31
2023-05-16T22:15:06.958Z,100585.50
2023-05-16T22:17:34.445Z,100586.97
2023-05-16T22:20:02.390Z,100585.97
2023-05-16T22:22:30.237Z,100594.19
2023-05-16T22:24:58.971Z,100594.03
2023-05-16T22:27:26.444Z,100601.72
2023-05-16T22:29:53.877Z,100601.56
2023-05-16T22:32:22.237Z,100602.06
2023-05-16T22:34:49.635Z,100610.41
2023-05-16T22:37:17.049Z,100615.47
2023-05-16T22:39:44.508Z,100616.00
2023-05-16T22:42:13.278Z,100612.88
2023-05-16T22:44:40.769Z,100618.13
2023-05-16T22:47:08.209Z,100617.94
2023-05-16T22:49:35.690Z,100612.06
2023-05-16T22:52:03.370Z,100615.16
2023-05-16T22:54:30.795Z,100624.84
2023-05-16T22:56:58.193Z,100623.38
2023-05-16T22:59:26.948Z,100622.06
2023-05-16T23:01:54.382Z,100624.66
2023-05-16T23:04:21.902Z,100628.56
2023-05-16T23:06:49.579Z,100638.22
2023-05-16T23:09:17.054Z,100649.56
2023-05-16T23:11:44.457Z,100648.25
2023-05-16T23:14:11.930Z,100656.88
2023-05-16T23:16:40.650Z,100649.69
2023-05-16T23:19:09.674Z,100646.41
2023-05-16T23:21:37.514Z,100655.91
2023-05-16T23:24:05.169Z,100659.34
2023-05-16T23:26:32.700Z,100654.06
2023-05-16T23:29:00.148Z,100652.88
2023-05-16T23:31:27.726Z,100652.94
2023-05-16T23:33:56.578Z,100663.06
2023-05-16T23:36:24.056Z,100668.19
2023-05-16T23:38:51.637Z,100662.53
2023-05-16T23:41:19.109Z,100666.25
2023-05-16T23:43:46.537Z,100669.69
2023-05-16T23:46:13.935Z,100674.28
2023-05-16T23:48:41.436Z,100680.47
2023-05-16T23:51:10.425Z,100689.09
2023-05-16T23:53:37.848Z,100677.41
2023-05-16T23:56:05.707Z,100674.44
2023-05-16T23:58:33.128Z,100686.47
